Bordeaux-Mérignac Airport

LFBD · Gironde, Nouvelle-Aquitaine, 法国

罗盘
风向 的 风向 的 风向 到 风向 070° Bordeaux-Mérignac Airport 5/23
风: 3 kt, 1 beaufort

3 kt

1 kt
改变
0 1.000 2.000 3.000 4.000 5.000
垂直能见度
SPECI LFBC 300030Z AUTO 07003KT 040V100 0750 0600 R24/0750D FG VV/// 05/04 Q1020

METAR Bordeaux-Mérignac Airport - LFBD/BOD

Bordeaux-Mérignac Airport是,法国中的大型机场。 该机场有2条跑道: 5/23 和 11/29. 该领域的国际民航组织标志是LFBD 它的国际航空运输协会代码是BOD.

这份报告是针对2022年11月30日 01:30, 当地时间在Cazaux (BA 120) Air Base进行的。

机场观察

风向为070°,速度为3 kt。 风向在040°和100°之间变化。

可见度为600 m。 跑道24的能见度为750 m 和 减少。

垂直能见度为0 ft 没有观察到天花板。

当前天气为多雾路段。 温度为5 °C,阵风为2 °C。 露点为4 °C,相对湿度为93%。 海平面上的气压为1020 hPa (QNH)。

白天

今天,太阳从08:19升起,在17:23降落。 这适用于Bordeaux-Mérignac Airport,世界夏令时可能有所不同。 当地时间与世界标准时间之间的时差为+1 小时。 当前,没有夏令时有效。

公司介绍

在这个机场,你可以找到飞行俱乐部。 本场上唯一已知的公司是CAPAM。

体会

到Vliegles.nl去找飞行课程,跳伞和其他飞行体验。 浏览页面,了解Bordeaux-Mérignac Airport附近所有可用的活动。 你也可以使用搜索功能来寻找你所在地附近的特定飞行课程、跳伞或其他飞行体验。

警示语

垂直能见度为0 ft。
跑道24处的能见度为750 m 和 减少。

跑道

Id 标题 侧风 逆风 侧风 %
5/23 046°-226° 1 kt 3 kt 41 %
11/29 107°-287° 2 kt 2 kt 60 %

逆风成分最大的方向会被突出显示,并用于横风计算。 这并不一定意味着这个方向在使用。

乌云

0 ft VV 垂直能见度

温度 & 天气

天气 多雾路段
温度 5 °C
露点 4 °C
相对湿度 93%
风寒 2 °C
Kp-index 1 (0-9)

白天

日出
08:19 (6:29)
中午
12:53
日落
17:26

小工具

你想在你的网站上有一个关于Bordeaux-Mérignac Airport的当前航空天气(METAR)的小部件吗?

显示HTML代码

我们和第三方通过cookies跟踪您在我们网站上的互联网行为。如果你继续,我们认为你同意我们的饼干政策